Time;durP1;ratioP1;P1;durP2;ratioP2;P2;SDS_P1;SDS_P2;PMS_P1;PMS_P2;Temp;Humidity;BMP_temperature;BMP_pressure;BME280_temperature;BME280_humidity;BME280_pressure;Samples;Min_cycle;Max_cycle;Signal;HPM_P1;HPM_P2
2021/12/04 00:00:49;;;;;;;24.73;17.80;;;;;;;;;;5069706;28;20214;-70
2021/12/04 00:03:16;;;;;;;21.03;16.67;;;;;;;;;;5068457;28;20214;-71
2021/12/04 00:05:47;;;;;;;19.10;15.33;;;;;;;;;;5070058;28;20270;-70
2021/12/04 00:08:14;;;;;;;19.33;16.53;;;;;;;;;;5070154;28;20544;-70
2021/12/04 00:10:40;;;;;;;18.93;14.03;;;;;;;;;;5068567;28;20805;-70
2021/12/04 00:13:07;;;;;;;18.40;15.67;;;;;;;;;;5067573;28;20210;-70
2021/12/04 00:15:33;;;;;;;18.63;16.03;;;;;;;;;;5069746;28;20268;-70
2021/12/04 00:18:01;;;;;;;19.83;16.67;;;;;;;;;;5067338;28;20210;-70
2021/12/04 00:20:30;;;;;;;20.10;17.87;;;;;;;;;;5067084;28;20220;-70
2021/12/04 00:22:59;;;;;;;16.93;14.80;;;;;;;;;;5069587;28;20217;-70
2021/12/04 00:25:25;;;;;;;17.73;15.90;;;;;;;;;;5069228;28;20704;-70
2021/12/04 00:27:52;;;;;;;20.77;17.20;;;;;;;;;;5068795;28;20213;-70
2021/12/04 00:30:18;;;;;;;16.57;13.93;;;;;;;;;;5067007;28;20213;-70
2021/12/04 00:32:54;;;;;;;16.63;14.83;;;;;;;;;;5067608;28;20229;-70
2021/12/04 00:35:33;;;;;;;18.50;16.33;;;;;;;;;;5068390;28;20732;-70
2021/12/04 00:43:17;;;;;;;18.43;15.97;;;;;;;;;;5074148;28;20344;-70
2021/12/04 00:49:17;;;;;;;17.43;14.70;;;;;;;;;;5072150;28;20243;-70
2021/12/04 00:51:50;;;;;;;17.83;15.50;;;;;;;;;;5071447;28;20224;-70
2021/12/04 00:54:17;;;;;;;18.57;16.43;;;;;;;;;;5072404;28;20205;-71
2021/12/04 00:56:44;;;;;;;17.73;15.40;;;;;;;;;;5071418;28;20202;-71
2021/12/04 00:59:11;;;;;;;16.90;14.13;;;;;;;;;;5071419;28;20209;-70
2021/12/04 01:01:39;;;;;;;18.23;15.37;;;;;;;;;;5071890;28;20275;-70
2021/12/04 01:04:09;;;;;;;16.77;13.97;;;;;;;;;;5073939;28;20266;-70
2021/12/04 01:06:35;;;;;;;16.87;13.70;;;;;;;;;;5071260;28;20217;-71
2021/12/04 01:09:04;;;;;;;16.03;14.33;;;;;;;;;;5071877;28;20607;-72
2021/12/04 01:11:30;;;;;;;16.27;13.17;;;;;;;;;;5071611;28;20357;-71
2021/12/04 01:13:57;;;;;;;20.60;15.97;;;;;;;;;;5071562;28;20217;-70
2021/12/04 01:16:23;;;;;;;16.80;15.00;;;;;;;;;;5070170;28;20230;-70
2021/12/04 01:18:49;;;;;;;19.10;15.33;;;;;;;;;;5070773;28;20659;-70
2021/12/04 01:21:16;;;;;;;17.57;14.90;;;;;;;;;;5071613;28;20724;-70
2021/12/04 01:23:42;;;;;;;19.27;14.90;;;;;;;;;;5072553;28;20271;-70
2021/12/04 01:26:10;;;;;;;18.40;15.13;;;;;;;;;;5069497;28;20855;-70
2021/12/04 01:28:36;;;;;;;17.53;14.17;;;;;;;;;;5071768;28;20226;-70
2021/12/04 01:31:03;;;;;;;20.27;15.37;;;;;;;;;;5070625;28;20592;-70
2021/12/04 01:33:29;;;;;;;17.70;13.97;;;;;;;;;;5071674;28;20782;-70
2021/12/04 01:35:56;;;;;;;18.83;13.57;;;;;;;;;;5072365;28;20747;-70
2021/12/04 01:38:22;;;;;;;18.20;14.93;;;;;;;;;;5070290;28;20221;-71
2021/12/04 01:40:49;;;;;;;21.67;15.37;;;;;;;;;;5071619;28;20228;-71
2021/12/04 01:43:17;;;;;;;20.73;14.33;;;;;;;;;;5070485;28;20213;-70
2021/12/04 01:45:43;;;;;;;19.57;14.37;;;;;;;;;;5070765;28;20221;-70
2021/12/04 01:48:10;;;;;;;20.60;16.30;;;;;;;;;;5068916;28;20777;-70
2021/12/04 01:50:36;;;;;;;19.70;15.77;;;;;;;;;;5069521;28;20218;-70
2021/12/04 01:53:03;;;;;;;19.53;14.43;;;;;;;;;;5070843;28;20494;-70
2021/12/04 01:55:32;;;;;;;18.93;13.53;;;;;;;;;;5070527;28;20519;-70
2021/12/04 01:58:00;;;;;;;20.93;14.47;;;;;;;;;;5070952;28;20875;-70
2021/12/04 02:00:29;;;;;;;19.17;14.57;;;;;;;;;;5069210;28;20286;-70
2021/12/04 02:02:55;;;;;;;20.27;14.70;;;;;;;;;;5070254;28;20830;-70
2021/12/04 02:05:22;;;;;;;17.83;14.30;;;;;;;;;;5071528;28;20299;-70
2021/12/04 02:07:48;;;;;;;18.87;13.33;;;;;;;;;;5070300;28;20209;-70
2021/12/04 02:10:15;;;;;;;19.03;14.67;;;;;;;;;;5069472;28;20229;-70
2021/12/04 02:12:42;;;;;;;19.60;14.20;;;;;;;;;;5070015;28;20669;-70
2021/12/04 02:15:12;;;;;;;21.20;13.73;;;;;;;;;;5070568;28;20206;-70
2021/12/04 02:17:40;;;;;;;18.60;13.70;;;;;;;;;;5070308;28;20229;-70
2021/12/04 02:20:15;;;;;;;19.27;14.57;;;;;;;;;;5072512;28;20801;-71
2021/12/04 02:22:42;;;;;;;20.17;14.77;;;;;;;;;;5069710;28;20627;-72
2021/12/04 02:25:09;;;;;;;18.40;12.77;;;;;;;;;;5069102;28;20276;-72
2021/12/04 02:27:36;;;;;;;16.40;11.30;;;;;;;;;;5069200;28;20205;-72
2021/12/04 02:30:03;;;;;;;18.83;11.53;;;;;;;;;;5069787;28;20218;-72
2021/12/04 02:32:31;;;;;;;17.93;12.70;;;;;;;;;;5070243;28;20238;-72
2021/12/04 02:34:57;;;;;;;19.27;13.43;;;;;;;;;;5068880;28;20943;-72
2021/12/04 02:37:25;;;;;;;21.97;13.63;;;;;;;;;;5068593;28;20209;-72
2021/12/04 02:39:58;;;;;;;19.00;13.73;;;;;;;;;;5069594;28;20275;-70
2021/12/04 02:42:27;;;;;;;16.90;11.90;;;;;;;;;;5071406;28;20563;-70
2021/12/04 02:44:54;;;;;;;18.57;13.20;;;;;;;;;;5070484;28;20290;-71
2021/12/04 02:47:20;;;;;;;20.20;13.80;;;;;;;;;;5071476;28;20229;-70
2021/12/04 02:49:47;;;;;;;17.40;12.30;;;;;;;;;;5069286;28;20237;-71
2021/12/04 02:52:15;;;;;;;22.60;14.13;;;;;;;;;;5069115;28;20224;-70
2021/12/04 02:54:42;;;;;;;17.73;12.23;;;;;;;;;;5067629;28;20229;-70
2021/12/04 02:57:13;;;;;;;20.07;13.23;;;;;;;;;;5069912;28;20221;-70
2021/12/04 02:59:40;;;;;;;18.60;12.90;;;;;;;;;;5069528;28;20218;-70
2021/12/04 03:02:10;;;;;;;18.70;13.53;;;;;;;;;;5070104;28;20251;-70
2021/12/04 03:04:36;;;;;;;18.00;12.70;;;;;;;;;;5070368;28;20221;-70
2021/12/04 03:07:03;;;;;;;18.47;11.60;;;;;;;;;;5067627;28;20237;-70
2021/12/04 03:09:29;;;;;;;21.33;13.13;;;;;;;;;;5069938;28;20754;-70
2021/12/04 03:11:57;;;;;;;19.13;11.30;;;;;;;;;;5070705;28;20641;-70
2021/12/04 03:14:23;;;;;;;20.07;13.43;;;;;;;;;;5070026;28;20367;-70
2021/12/04 03:16:50;;;;;;;17.13;12.67;;;;;;;;;;5068219;28;20597;-70
2021/12/04 03:19:18;;;;;;;20.07;13.63;;;;;;;;;;5070797;28;20214;-70
2021/12/04 03:21:44;;;;;;;20.87;13.40;;;;;;;;;;5068483;28;20233;-71
2021/12/04 03:24:13;;;;;;;20.27;13.57;;;;;;;;;;5068120;28;20212;-70
2021/12/04 03:26:40;;;;;;;23.70;14.57;;;;;;;;;;5068031;28;20224;-70
2021/12/04 03:29:10;;;;;;;23.33;14.60;;;;;;;;;;5070040;28;20238;-70
2021/12/04 03:40:06;;;;;;;18.00;12.70;;;;;;;;;;5068693;28;20321;-70
2021/12/04 03:42:34;;;;;;;25.87;15.27;;;;;;;;;;5068925;28;20291;-70
2021/12/04 03:45:02;;;;;;;29.20;16.13;;;;;;;;;;5069429;28;20232;-70
2021/12/04 03:47:29;;;;;;;27.03;14.77;;;;;;;;;;5070128;28;20230;-70
2021/12/04 03:49:56;;;;;;;29.23;15.20;;;;;;;;;;5068115;28;21045;-70
2021/12/04 03:52:23;;;;;;;30.60;16.37;;;;;;;;;;5069521;28;20256;-70
2021/12/04 03:54:49;;;;;;;32.20;17.23;;;;;;;;;;5068672;28;20294;-70
2021/12/04 03:57:16;;;;;;;32.27;16.10;;;;;;;;;;5069046;28;20601;-70
2021/12/04 03:59:46;;;;;;;30.97;17.37;;;;;;;;;;5069324;28;20205;-70
2021/12/04 04:02:16;;;;;;;35.57;18.17;;;;;;;;;;5068987;28;20938;-70
2021/12/04 04:04:42;;;;;;;42.60;19.23;;;;;;;;;;5068917;28;20213;-70
2021/12/04 04:07:09;;;;;;;43.77;19.03;;;;;;;;;;5066005;28;20214;-70
2021/12/04 04:09:38;;;;;;;52.47;22.00;;;;;;;;;;5067545;28;20233;-70
2021/12/04 04:12:05;;;;;;;53.90;21.30;;;;;;;;;;5071231;28;20229;-72
2021/12/04 04:14:31;;;;;;;52.87;19.70;;;;;;;;;;5071685;28;20209;-70
2021/12/04 04:16:58;;;;;;;71.67;26.00;;;;;;;;;;5073907;28;20226;-70
2021/12/04 04:19:27;;;;;;;51.57;21.63;;;;;;;;;;5073329;28;20218;-70
2021/12/04 04:21:56;;;;;;;50.97;20.97;;;;;;;;;;5072736;28;20217;-70
2021/12/04 04:24:24;;;;;;;62.17;23.63;;;;;;;;;;5072342;28;20210;-70
2021/12/04 04:26:51;;;;;;;65.60;21.47;;;;;;;;;;5071746;28;20235;-71
2021/12/04 04:29:17;;;;;;;55.73;21.10;;;;;;;;;;5070426;28;20241;-70
2021/12/04 04:31:46;;;;;;;83.27;25.40;;;;;;;;;;5073777;28;20229;-71
2021/12/04 04:34:19;;;;;;;58.43;23.30;;;;;;;;;;5073374;28;20212;-70
2021/12/04 04:37:00;;;;;;;75.80;26.50;;;;;;;;;;5072069;28;20213;-71
2021/12/04 04:39:53;;;;;;;87.83;26.47;;;;;;;;;;5074103;28;20210;-70
2021/12/04 04:59:04;;;;;;;109.23;29.57;;;;;;;;;;5071936;28;20235;-70
2021/12/04 05:12:26;;;;;;;146.00;35.07;;;;;;;;;;5054940;28;20997;-70
2021/12/04 05:14:56;;;;;;;151.70;34.90;;;;;;;;;;5070285;28;20998;-70
2021/12/04 05:17:41;;;;;;;128.80;33.83;;;;;;;;;;5072994;28;20964;-70
2021/12/04 05:20:08;;;;;;;114.67;30.47;;;;;;;;;;5071606;28;20213;-70
2021/12/04 05:22:35;;;;;;;99.60;27.87;;;;;;;;;;5070801;28;20255;-70
2021/12/04 05:25:03;;;;;;;255.70;45.57;;;;;;;;;;5070619;28;20233;-70
2021/12/04 05:27:30;;;;;;;130.47;33.87;;;;;;;;;;5070481;28;20218;-70
2021/12/04 05:29:56;;;;;;;157.13;35.87;;;;;;;;;;5070386;28;20672;-70
2021/12/04 05:32:23;;;;;;;138.75;43.75;;;;;;;;;;5070108;28;20462;-75
2021/12/04 05:34:49;;;;;;;206.23;43.90;;;;;;;;;;5072009;28;20733;-74
2021/12/04 05:37:15;;;;;;;166.60;39.40;;;;;;;;;;5071964;28;20263;-74
2021/12/04 05:39:42;;;;;;;155.87;37.50;;;;;;;;;;5069023;28;20607;-74
2021/12/04 05:42:09;;;;;;;153.13;36.07;;;;;;;;;;5070793;28;20642;-75
2021/12/04 05:44:36;;;;;;;159.57;37.07;;;;;;;;;;5070959;28;20210;-75
2021/12/04 05:47:08;;;;;;;155.17;35.60;;;;;;;;;;5069862;28;20226;-74
2021/12/04 05:49:46;;;;;;;219.00;43.87;;;;;;;;;;5070267;28;20238;-74
2021/12/04 05:52:20;;;;;;;212.67;43.53;;;;;;;;;;5070345;28;20259;-75
2021/12/04 05:55:08;;;;;;;189.00;39.07;;;;;;;;;;5069814;28;20357;-75
2021/12/04 05:57:36;;;;;;;298.57;47.83;;;;;;;;;;5071791;28;20660;-76
2021/12/04 06:00:04;;;;;;;251.57;45.43;;;;;;;;;;5069299;28;20287;-75
2021/12/04 06:02:30;;;;;;;176.53;39.53;;;;;;;;;;5069825;28;20222;-75
2021/12/04 06:04:57;;;;;;;159.53;37.80;;;;;;;;;;5070001;28;20205;-74
2021/12/04 06:07:23;;;;;;;196.60;39.27;;;;;;;;;;5070636;28;20213;-74
2021/12/04 06:09:50;;;;;;;181.70;36.23;;;;;;;;;;5069272;28;20242;-74
2021/12/04 06:12:16;;;;;;;166.97;37.33;;;;;;;;;;5071056;28;20271;-75
2021/12/04 06:14:46;;;;;;;213.37;42.20;;;;;;;;;;5070695;28;20552;-74
2021/12/04 06:17:13;;;;;;;242.43;46.73;;;;;;;;;;5069978;28;20261;-75
2021/12/04 06:22:40;;;;;;;186.60;38.17;;;;;;;;;;5070239;28;20707;-75
2021/12/04 06:25:08;;;;;;;146.70;35.33;;;;;;;;;;5069594;28;20639;-75
2021/12/04 06:27:34;;;;;;;217.23;43.13;;;;;;;;;;5070188;28;20210;-74
2021/12/04 06:30:02;;;;;;;179.73;39.17;;;;;;;;;;5069708;28;20660;-75
2021/12/04 06:32:29;;;;;;;283.70;49.23;;;;;;;;;;5069883;28;20218;-75
2021/12/04 06:34:55;;;;;;;163.80;37.00;;;;;;;;;;5066567;28;20205;-75
2021/12/04 06:37:22;;;;;;;141.93;36.13;;;;;;;;;;5069803;28;20678;-75
2021/12/04 06:39:48;;;;;;;110.77;32.40;;;;;;;;;;5068906;28;20592;-75
2021/12/04 06:42:14;;;;;;;209.33;41.30;;;;;;;;;;5070325;28;20214;-75
2021/12/04 06:44:41;;;;;;;169.53;40.73;;;;;;;;;;5067856;28;20214;-75
2021/12/04 06:47:09;;;;;;;160.67;36.63;;;;;;;;;;5069381;28;20238;-75
2021/12/04 06:49:38;;;;;;;238.90;46.83;;;;;;;;;;5070050;28;21076;-75
2021/12/04 06:52:08;;;;;;;175.53;37.57;;;;;;;;;;5070098;28;20209;-75
2021/12/04 06:54:37;;;;;;;162.93;37.20;;;;;;;;;;5070721;28;20255;-75
2021/12/04 06:57:08;;;;;;;166.60;38.23;;;;;;;;;;5070240;28;20746;-75
2021/12/04 06:59:34;;;;;;;169.57;38.67;;;;;;;;;;5068679;28;20212;-74
2021/12/04 07:02:01;;;;;;;153.03;36.83;;;;;;;;;;5068743;28;20308;-74
2021/12/04 07:04:34;;;;;;;192.10;42.57;;;;;;;;;;5069520;28;20935;-75
2021/12/04 07:07:00;;;;;;;202.47;42.10;;;;;;;;;;5067848;28;20214;-74
2021/12/04 07:09:27;;;;;;;163.40;38.67;;;;;;;;;;5069167;28;20209;-75
2021/12/04 07:11:54;;;;;;;211.37;43.93;;;;;;;;;;5066763;28;20217;-74
2021/12/04 07:14:20;;;;;;;178.53;37.83;;;;;;;;;;5068709;28;20244;-75
2021/12/04 07:16:47;;;;;;;165.53;39.60;;;;;;;;;;5068811;28;20221;-75
2021/12/04 07:19:13;;;;;;;142.13;34.53;;;;;;;;;;5067998;28;20288;-74
2021/12/04 07:21:41;;;;;;;197.43;41.80;;;;;;;;;;5068159;28;20209;-75
2021/12/04 07:24:10;;;;;;;149.47;37.50;;;;;;;;;;5067538;28;20206;-75
2021/12/04 07:26:36;;;;;;;147.87;37.77;;;;;;;;;;5068639;28;20226;-76
2021/12/04 07:29:03;;;;;;;282.40;50.20;;;;;;;;;;5067301;28;20314;-74
2021/12/04 07:31:30;;;;;;;358.63;57.17;;;;;;;;;;5068293;28;20221;-75
2021/12/04 07:33:56;;;;;;;242.17;42.20;;;;;;;;;;5067518;28;20283;-75
2021/12/04 07:36:23;;;;;;;183.87;39.80;;;;;;;;;;5066866;28;20311;-75
2021/12/04 07:38:51;;;;;;;292.33;49.53;;;;;;;;;;5067412;28;20644;-75
2021/12/04 07:41:18;;;;;;;240.80;45.83;;;;;;;;;;5068172;28;20234;-75
2021/12/04 07:43:46;;;;;;;280.00;48.27;;;;;;;;;;5067345;28;20738;-75
2021/12/04 07:46:12;;;;;;;266.67;47.57;;;;;;;;;;5069254;28;20229;-75
2021/12/04 07:48:39;;;;;;;257.27;44.67;;;;;;;;;;5071318;28;20872;-75
2021/12/04 07:51:05;;;;;;;175.77;40.33;;;;;;;;;;5071582;28;20217;-75
2021/12/04 07:53:33;;;;;;;189.57;40.10;;;;;;;;;;5072786;28;20233;-75
2021/12/04 07:56:01;;;;;;;171.00;37.87;;;;;;;;;;5071066;28;20277;-76
2021/12/04 07:58:28;;;;;;;182.93;39.43;;;;;;;;;;5072666;28;20205;-75
2021/12/04 08:00:54;;;;;;;170.93;38.10;;;;;;;;;;5071905;28;20224;-74
2021/12/04 08:03:21;;;;;;;176.50;38.53;;;;;;;;;;5071603;28;20209;-75
2021/12/04 08:05:49;;;;;;;175.60;40.53;;;;;;;;;;5073178;28;20213;-75
2021/12/04 08:08:15;;;;;;;149.73;35.20;;;;;;;;;;5071315;28;20225;-75
2021/12/04 08:10:42;;;;;;;100.97;30.87;;;;;;;;;;5070411;28;20237;-75
2021/12/04 08:13:09;;;;;;;116.53;31.83;;;;;;;;;;5071448;28;20225;-76
2021/12/04 08:15:37;;;;;;;108.00;31.73;;;;;;;;;;5070550;28;20225;-75
2021/12/04 08:18:04;;;;;;;137.63;33.93;;;;;;;;;;5070624;28;20209;-76
2021/12/04 08:20:31;;;;;;;162.30;37.90;;;;;;;;;;5062753;28;20690;-76
2021/12/04 08:22:57;;;;;;;202.57;39.87;;;;;;;;;;5072144;28;20246;-76
2021/12/04 08:25:25;;;;;;;165.63;41.03;;;;;;;;;;5069114;28;20361;-76
2021/12/04 08:27:52;;;;;;;113.80;33.47;;;;;;;;;;5068712;28;20708;-76
2021/12/04 08:30:23;;;;;;;146.33;36.77;;;;;;;;;;5073610;28;20630;-76
2021/12/04 08:32:52;;;;;;;137.03;35.20;;;;;;;;;;5072861;28;20683;-76
2021/12/04 08:35:23;;;;;;;99.13;32.47;;;;;;;;;;5072876;28;20237;-76
2021/12/04 08:37:51;;;;;;;103.33;31.40;;;;;;;;;;5070359;28;20205;-75
2021/12/04 08:40:18;;;;;;;123.63;34.20;;;;;;;;;;5070966;28;20225;-76
2021/12/04 08:42:46;;;;;;;105.57;31.70;;;;;;;;;;5070460;28;20210;-76
2021/12/04 08:45:14;;;;;;;89.73;28.60;;;;;;;;;;5070453;28;20225;-76
2021/12/04 08:47:42;;;;;;;99.10;30.27;;;;;;;;;;5071139;28;20228;-77
2021/12/04 08:50:12;;;;;;;117.10;32.80;;;;;;;;;;5070456;28;20623;-76
2021/12/04 08:52:38;;;;;;;112.57;33.43;;;;;;;;;;5071691;28;20202;-76
2021/12/04 08:55:06;;;;;;;107.67;33.50;;;;;;;;;;5068600;28;20315;-76
2021/12/04 08:57:33;;;;;;;100.90;32.13;;;;;;;;;;5068122;28;20262;-76
2021/12/04 09:00:00;;;;;;;91.40;31.17;;;;;;;;;;5069159;28;20216;-76
2021/12/04 09:02:27;;;;;;;91.33;31.80;;;;;;;;;;5067702;28;20226;-76
2021/12/04 09:04:57;;;;;;;70.37;28.93;;;;;;;;;;5070283;28;20711;-76
2021/12/04 09:07:24;;;;;;;80.80;32.17;;;;;;;;;;5069303;28;20205;-76
2021/12/04 09:09:54;;;;;;;93.83;32.20;;;;;;;;;;5073401;28;20634;-76
2021/12/04 09:12:22;;;;;;;62.57;27.67;;;;;;;;;;5068351;28;20209;-77
2021/12/04 09:14:49;;;;;;;53.83;25.33;;;;;;;;;;5071324;28;20222;-77
2021/12/04 09:17:18;;;;;;;58.17;27.00;;;;;;;;;;5070005;28;20226;-76
2021/12/04 09:19:45;;;;;;;67.80;28.57;;;;;;;;;;5070603;28;20210;-76
2021/12/04 09:22:16;;;;;;;51.33;24.37;;;;;;;;;;5070695;28;20617;-76
2021/12/04 09:24:45;;;;;;;47.63;23.70;;;;;;;;;;5066657;28;20244;-76
2021/12/04 09:27:19;;;;;;;51.60;25.37;;;;;;;;;;5070792;28;20625;-77
2021/12/04 09:30:04;;;;;;;52.10;25.50;;;;;;;;;;5069001;28;20233;-74
2021/12/04 10:00:11;;;;;;;48.03;22.90;;;;;;;;;;5070944;28;20702;-76
2021/12/04 10:02:55;;;;;;;47.30;23.37;;;;;;;;;;5071975;28;20236;-77
2021/12/04 10:05:46;;;;;;;42.60;21.77;;;;;;;;;;5069711;28;20226;-75
2021/12/04 10:14:23;;;;;;;40.30;20.43;;;;;;;;;;5070016;28;20394;-77
2021/12/04 10:19:56;;;;;;;38.03;19.13;;;;;;;;;;5029767;28;20279;-76
2021/12/04 10:22:30;;;;;;;36.80;20.00;;;;;;;;;;5069599;28;20771;-76
2021/12/04 10:33:27;;;;;;;43.90;19.87;;;;;;;;;;5068912;28;20220;-76
2021/12/04 10:35:54;;;;;;;42.57;20.03;;;;;;;;;;5071413;28;20205;-76
2021/12/04 10:38:23;;;;;;;41.00;18.90;;;;;;;;;;5066603;28;20206;-76
2021/12/04 10:40:50;;;;;;;41.07;19.47;;;;;;;;;;5068295;28;20355;-76
2021/12/04 10:43:22;;;;;;;37.70;18.67;;;;;;;;;;5069631;28;20217;-76
2021/12/04 10:45:52;;;;;;;35.13;17.57;;;;;;;;;;5072354;28;20229;-76
2021/12/04 10:48:22;;;;;;;31.90;18.33;;;;;;;;;;5070175;28;21059;-76
2021/12/04 10:50:56;;;;;;;34.13;17.23;;;;;;;;;;5065876;28;20209;-76
2021/12/04 10:53:27;;;;;;;32.27;16.57;;;;;;;;;;5070349;28;20231;-76
2021/12/04 10:56:05;;;;;;;35.30;19.40;;;;;;;;;;5069447;28;20713;-76
2021/12/04 11:01:39;;;;;;;33.30;17.13;;;;;;;;;;5068881;28;20709;-76
2021/12/04 11:04:17;;;;;;;29.37;16.20;;;;;;;;;;5068068;28;20210;-76
2021/12/04 11:07:13;;;;;;;32.43;17.27;;;;;;;;;;5068220;28;20209;-76
2021/12/04 11:24:04;;;;;;;31.40;16.17;;;;;;;;;;5034662;28;20210;-76
2021/12/04 11:26:57;;;;;;;26.07;15.33;;;;;;;;;;5067301;28;20303;-76
2021/12/04 11:38:04;;;;;;;29.47;17.00;;;;;;;;;;5062520;28;20297;-77
2021/12/04 11:43:25;;;;;;;29.43;16.37;;;;;;;;;;5060233;28;20327;-76
2021/12/04 11:46:02;;;;;;;30.17;16.30;;;;;;;;;;5069422;28;20236;-77
2021/12/04 11:48:32;;;;;;;25.93;16.30;;;;;;;;;;5067412;28;20226;-77
2021/12/04 11:50:59;;;;;;;28.13;15.63;;;;;;;;;;5067726;28;20217;-76
2021/12/04 11:53:27;;;;;;;28.70;15.97;;;;;;;;;;5068330;28;20267;-76
2021/12/04 11:55:54;;;;;;;36.13;17.53;;;;;;;;;;5069189;28;20756;-76
2021/12/04 11:58:23;;;;;;;27.97;15.43;;;;;;;;;;5069153;28;20208;-77
2021/12/04 12:00:51;;;;;;;28.07;14.60;;;;;;;;;;5068635;28;20226;-76
2021/12/04 12:03:20;;;;;;;27.77;14.80;;;;;;;;;;5067281;28;20278;-76
2021/12/04 12:05:51;;;;;;;28.20;15.37;;;;;;;;;;5067821;28;20213;-76
2021/12/04 12:08:23;;;;;;;27.53;14.70;;;;;;;;;;5066932;28;20304;-77
2021/12/04 12:10:52;;;;;;;28.23;14.50;;;;;;;;;;5066755;28;20232;-77
2021/12/04 12:13:27;;;;;;;30.73;14.57;;;;;;;;;;5066675;28;20721;-77
2021/12/04 12:16:00;;;;;;;32.40;15.77;;;;;;;;;;5066436;28;20713;-76
2021/12/04 12:18:29;;;;;;;32.10;14.90;;;;;;;;;;5066221;28;20206;-77
2021/12/04 12:21:08;;;;;;;32.63;15.70;;;;;;;;;;5066531;28;20217;-76
2021/12/04 12:23:39;;;;;;;36.03;15.63;;;;;;;;;;5070881;28;20559;-76
2021/12/04 12:26:14;;;;;;;38.57;16.53;;;;;;;;;;5067536;28;20225;-76
2021/12/04 12:31:57;;;;;;;32.07;15.83;;;;;;;;;;5024286;28;20748;-76
2021/12/04 12:37:16;;;;;;;33.70;15.13;;;;;;;;;;5068777;28;20890;-76
2021/12/04 12:39:52;;;;;;;34.50;16.47;;;;;;;;;;5071726;28;20298;-76
2021/12/04 12:42:24;;;;;;;35.00;16.23;;;;;;;;;;5072818;28;20548;-76
2021/12/04 12:44:50;;;;;;;32.53;16.73;;;;;;;;;;5071539;28;20290;-76
2021/12/04 12:47:19;;;;;;;39.20;15.83;;;;;;;;;;5068693;28;20233;-76
2021/12/04 12:49:48;;;;;;;36.03;17.20;;;;;;;;;;5073396;28;20222;-76
2021/12/04 12:52:19;;;;;;;35.27;16.67;;;;;;;;;;5071381;28;20259;-75
2021/12/04 12:54:52;;;;;;;35.80;16.40;;;;;;;;;;5071916;28;20222;-76
2021/12/04 12:57:22;;;;;;;30.77;16.07;;;;;;;;;;5074604;28;20728;-76
2021/12/04 13:11:36;;;;;;;32.03;16.30;;;;;;;;;;5071803;28;20206;-76
2021/12/04 13:13:53;;;;;;;30.77;15.43;;;;;;;;;;5071507;28;20725;-76
2021/12/04 13:16:23;;;;;;;32.83;16.17;;;;;;;;;;5069771;28;20233;-76
2021/12/04 13:18:55;;;;;;;30.97;16.87;;;;;;;;;;5070527;28;20213;-75
2021/12/04 13:21:22;;;;;;;35.43;16.43;;;;;;;;;;5070805;28;20214;-76
2021/12/04 13:23:51;;;;;;;36.30;17.67;;;;;;;;;;5071208;28;20209;-76
2021/12/04 13:26:18;;;;;;;30.53;15.33;;;;;;;;;;5070768;28;20219;-76
2021/12/04 13:28:50;;;;;;;32.57;18.10;;;;;;;;;;5067523;28;20252;-76
2021/12/04 13:31:18;;;;;;;33.87;17.00;;;;;;;;;;5070089;28;20226;-76
2021/12/04 13:33:48;;;;;;;31.27;17.13;;;;;;;;;;5068495;28;20221;-76
2021/12/04 13:36:15;;;;;;;33.13;17.97;;;;;;;;;;5068145;28;20222;-76
2021/12/04 13:38:42;;;;;;;36.57;18.97;;;;;;;;;;5068665;28;20458;-76
2021/12/04 13:41:10;;;;;;;36.40;17.17;;;;;;;;;;5069950;28;20260;-76
2021/12/04 13:43:37;;;;;;;37.10;17.30;;;;;;;;;;5068987;28;20221;-76
2021/12/04 13:46:05;;;;;;;32.27;17.27;;;;;;;;;;5072319;28;20590;-76
2021/12/04 13:48:33;;;;;;;32.37;17.43;;;;;;;;;;5068596;28;20237;-77
2021/12/04 13:51:02;;;;;;;37.87;18.50;;;;;;;;;;5070285;28;20206;-77
2021/12/04 13:53:50;;;;;;;30.90;17.97;;;;;;;;;;5069711;28;20841;-76
2021/12/04 13:56:22;;;;;;;35.70;18.70;;;;;;;;;;5068426;28;20237;-76
2021/12/04 13:58:52;;;;;;;46.70;20.30;;;;;;;;;;5069775;28;20285;-77
2021/12/04 14:01:19;;;;;;;43.50;21.67;;;;;;;;;;5069956;28;20312;-77
2021/12/04 14:03:47;;;;;;;45.13;20.13;;;;;;;;;;5071388;28;20669;-77
2021/12/04 14:06:15;;;;;;;47.67;23.10;;;;;;;;;;5069315;28;20217;-77
2021/12/04 14:08:43;;;;;;;43.97;21.37;;;;;;;;;;5069827;28;20213;-77
2021/12/04 14:11:10;;;;;;;52.63;21.80;;;;;;;;;;5068842;28;20279;-77
2021/12/04 14:13:39;;;;;;;50.27;22.13;;;;;;;;;;5070540;28;20294;-76
2021/12/04 14:16:06;;;;;;;50.23;23.10;;;;;;;;;;5071397;28;20233;-76
2021/12/04 14:18:34;;;;;;;61.10;26.17;;;;;;;;;;5069881;28;20762;-76
2021/12/04 14:21:02;;;;;;;59.17;23.53;;;;;;;;;;5070478;28;20234;-77
2021/12/04 14:23:29;;;;;;;72.43;26.50;;;;;;;;;;5068728;28;20209;-77
2021/12/04 14:25:56;;;;;;;61.60;24.53;;;;;;;;;;5070035;28;20221;-78
2021/12/04 14:28:25;;;;;;;59.27;25.90;;;;;;;;;;5069100;28;20233;-77
2021/12/04 14:30:53;;;;;;;62.13;26.77;;;;;;;;;;5068228;28;20221;-77
2021/12/04 14:33:22;;;;;;;88.23;30.93;;;;;;;;;;5068848;28;20214;-77
2021/12/04 14:35:50;;;;;;;79.03;27.47;;;;;;;;;;5069712;28;20244;-77
2021/12/04 14:38:19;;;;;;;85.10;29.47;;;;;;;;;;5068851;28;20253;-76
2021/12/04 14:40:47;;;;;;;76.60;28.17;;;;;;;;;;5068332;28;20220;-76
2021/12/04 14:43:17;;;;;;;86.20;31.40;;;;;;;;;;5068888;28;20656;-75
2021/12/04 14:45:47;;;;;;;72.97;28.20;;;;;;;;;;5068315;28;20222;-75
2021/12/04 14:48:17;;;;;;;81.37;29.57;;;;;;;;;;5070633;28;20916;-75
2021/12/04 14:50:47;;;;;;;98.17;32.10;;;;;;;;;;5069421;28;20207;-76
2021/12/04 14:53:16;;;;;;;84.03;29.37;;;;;;;;;;5067372;28;20205;-76
2021/12/04 14:55:45;;;;;;;85.80;29.93;;;;;;;;;;5066233;28;20229;-76
2021/12/04 14:58:14;;;;;;;66.43;28.47;;;;;;;;;;5068358;28;20206;-76
2021/12/04 15:00:44;;;;;;;71.70;28.00;;;;;;;;;;5067255;28;20230;-76
2021/12/04 15:03:13;;;;;;;78.70;28.87;;;;;;;;;;5069384;28;20244;-76
2021/12/04 15:05:43;;;;;;;79.87;28.73;;;;;;;;;;5064924;28;20655;-77
2021/12/04 15:08:12;;;;;;;76.73;28.17;;;;;;;;;;5069342;28;20287;-77
2021/12/04 15:10:40;;;;;;;89.60;29.80;;;;;;;;;;5067170;28;20222;-75
2021/12/04 15:13:08;;;;;;;74.17;28.33;;;;;;;;;;5067017;28;20213;-75
2021/12/04 15:15:37;;;;;;;83.47;29.57;;;;;;;;;;5067461;28;20243;-76
2021/12/04 15:18:09;;;;;;;80.07;29.77;;;;;;;;;;5068400;28;20284;-76
2021/12/04 15:20:38;;;;;;;70.77;27.23;;;;;;;;;;5068403;28;20279;-76
2021/12/04 15:23:08;;;;;;;74.97;27.97;;;;;;;;;;5067284;28;20216;-78
2021/12/04 15:25:37;;;;;;;87.90;30.40;;;;;;;;;;5069183;28;20228;-76
2021/12/04 15:28:15;;;;;;;80.87;30.70;;;;;;;;;;5067620;28;20238;-77
2021/12/04 15:30:44;;;;;;;81.03;31.97;;;;;;;;;;5067971;28;20687;-76
2021/12/04 15:33:21;;;;;;;80.83;30.90;;;;;;;;;;5066871;28;20221;-76
2021/12/04 15:35:50;;;;;;;87.03;32.17;;;;;;;;;;5069040;28;20236;-76
2021/12/04 15:38:34;;;;;;;95.57;32.50;;;;;;;;;;5067452;28;20210;-76
2021/12/04 15:41:07;;;;;;;100.00;34.97;;;;;;;;;;5068867;28;21149;-75
2021/12/04 15:43:39;;;;;;;89.67;31.47;;;;;;;;;;5069134;28;20205;-75
2021/12/04 15:46:13;;;;;;;74.80;31.60;;;;;;;;;;5067023;28;20743;-74
2021/12/04 15:54:46;;;;;;;76.07;27.57;;;;;;;;;;5066803;28;20314;-74
2021/12/04 15:57:19;;;;;;;46.53;22.30;;;;;;;;;;5066222;28;20274;-75
2021/12/04 15:59:49;;;;;;;47.17;21.97;;;;;;;;;;5067649;28;20349;-75
2021/12/04 16:02:19;;;;;;;51.30;23.60;;;;;;;;;;5066921;28;20635;-74
2021/12/04 16:04:48;;;;;;;39.13;20.87;;;;;;;;;;5067835;28;20214;-74
2021/12/04 16:07:25;;;;;;;34.67;17.47;;;;;;;;;;5071024;28;20205;-73
2021/12/04 16:09:53;;;;;;;24.53;11.87;;;;;;;;;;5071074;28;20311;-73
2021/12/04 16:12:23;;;;;;;21.37;11.40;;;;;;;;;;5072082;28;20660;-73
2021/12/04 16:14:55;;;;;;;18.33;9.57;;;;;;;;;;5072459;28;20205;-73
2021/12/04 16:17:21;;;;;;;11.37;6.10;;;;;;;;;;5068797;28;20696;-73
2021/12/04 16:19:52;;;;;;;10.00;4.33;;;;;;;;;;5073510;28;20913;-73
2021/12/04 16:22:19;;;;;;;8.60;3.63;;;;;;;;;;5070598;28;20300;-76
2021/12/04 16:24:49;;;;;;;5.80;3.07;;;;;;;;;;5070363;28;20221;-74
2021/12/04 16:27:20;;;;;;;5.07;2.80;;;;;;;;;;5070332;28;20209;-74
2021/12/04 16:29:53;;;;;;;9.97;3.03;;;;;;;;;;5070417;28;20474;-75
2021/12/04 16:32:36;;;;;;;6.40;3.13;;;;;;;;;;5071663;28;20278;-75
2021/12/04 16:35:16;;;;;;;5.70;3.27;;;;;;;;;;5073085;28;20258;-75
2021/12/04 16:37:45;;;;;;;7.07;4.33;;;;;;;;;;5072650;28;20758;-75
2021/12/04 16:40:19;;;;;;;6.50;3.00;;;;;;;;;;5070707;28;20238;-76
2021/12/04 16:42:47;;;;;;;7.00;4.07;;;;;;;;;;5071715;28;20209;-75
2021/12/04 16:45:14;;;;;;;7.23;3.60;;;;;;;;;;5072045;28;20217;-75
2021/12/04 16:47:44;;;;;;;6.60;4.30;;;;;;;;;;5072657;28;20222;-75
2021/12/04 16:50:15;;;;;;;8.80;3.97;;;;;;;;;;5071702;28;20249;-76